MMTJ

General Abelardo L. Rodríguez International Airport

Airport
ICAO code
MMTJ
IATA Code
TIJ
Summary
ICAO Region
CARSAM
ICAO Territory
Location

Tijuana, Baja California

Serving
Tijuana
Elevation
489 ft
Coordinates
32° 32' 28" N , 116° 58' 13" W
Metar
MMTJ 140640Z 25004KT 7SM BKN014 15/13 A3002 RMK 8/600 HZY

Description

Tijuana International Airport is located in Tijuana, Baja California, Mexico.

Climatology

Semi-arid or Mediterranean (Köppen climate classification BSh or Csa/Csb). It enjoys mild, sunny weather throughout the year.

Runways

Designator Length Width Surface Rops
9/27 2960 44 CON Yes/Yes

Airport map

Aerial View

SKYbrary Partners:

Safety knowledge contributed by: